Yellow Springs, OH

12:33 AM EDT on June 02, 2015 (GMT -0400)
Cox-Dayton International | | Change Station
CLOSE
Current Station
Airport
Location: Dayton,
Elevation: 1001 ft
Nearby Weather Stations

Elev 1001 ft 39.91 °N, 84.22 °W | Updated 37 minutes ago

Mostly Cloudy
Mostly Cloudy
53 °F
Feels Like 53 °F
N
5
Wind Variable Wind from North

Today
High -- | Low -- °F
--% Chance of Precip.
Yesterday
High -- | Low -- °F
Precip. -- in
6:09 AM 8:58 PM
Full, 100% visible
Pressure 30.18 in
Visibility 10.0 miles
Clouds Scattered Clouds 1600 ft
Dew Point 48 °F
Humidity 83%
Rainfall 0.07 in
Snow Depth Not available.
UV 0 out of 12
Pollen 5.70 out of 12
Air Quality Not available.
Flu Activity Sporadic
METAR KDAY 020356Z 01004KT 10SM SCT016 12/09 A3018 RMK AO2 SLP219 T01170089

More Conditions Fewer Conditions

Pressure 30.18 in
Visibility 10.0 miles
Clouds Scattered Clouds 1600 ft
Dew Point 48 °F
Humidity 83%
Rainfall 0.07 in
Snow Depth Not available.
UV 0 out of 12
Pollen 5.70 out of 12
Air Quality Not available.
Flu Activity Sporadic
METAR KDAY 020356Z 01004KT 10SM SCT016 12/09 A3018 RMK AO2 SLP219 T01170089

More Conditions Fewer Conditions

10-Day Weather Forecast

Almanac

Astronomy

Jun. 02, 2015 Rise Set
Actual Time
Civil Twilight
Nautical Twilight
Astronomical Twilight
Moon
Length of Visible Light
Length of Day
Tomorrow will be .
, % of the Moon is Illuminated

Today's Extremes

State Highs State Lows

Community

WunderPhotos

Upload Photos

1,825,908 photos uploaded!

WunderBlogs® & News

Nearby

Air Quality

  Air Quality AQ Index Pollutant
Not available.

Snow Depth

Station Depth Elevation

Earthquake Activity

City Distance Mag. Time & Date
Minimum magnitude displayed is 2.5.

Coastal Water Temperatures

Place Temperature

Stations

Nearby Weather Stations

Station Location Temp. Windchill Dew Point Humidity Wind Precip. Elev Updated Type